sensor_id;sensor_type;location;lat;lon;timestamp;P1;durP1;ratioP1;P2;durP2;ratioP2
17983;SDS011;9117;52.420;20.728;2023-02-08T00:01:14;31.63;;;11.53;;
17983;SDS011;9117;52.420;20.728;2023-02-08T00:03:43;26.37;;;11.70;;
17983;SDS011;9117;52.420;20.728;2023-02-08T00:06:12;26.37;;;11.57;;
17983;SDS011;9117;52.420;20.728;2023-02-08T00:08:41;33.90;;;12.10;;
17983;SDS011;9117;52.420;20.728;2023-02-08T00:11:10;28.27;;;12.33;;
17983;SDS011;9117;52.420;20.728;2023-02-08T00:13:40;31.63;;;12.53;;
17983;SDS011;9117;52.420;20.728;2023-02-08T00:16:09;32.70;;;12.93;;
17983;SDS011;9117;52.420;20.728;2023-02-08T00:18:40;31.17;;;12.60;;
17983;SDS011;9117;52.420;20.728;2023-02-08T00:21:08;35.50;;;14.27;;
17983;SDS011;9117;52.420;20.728;2023-02-08T00:23:38;40.97;;;15.37;;
17983;SDS011;9117;52.420;20.728;2023-02-08T00:26:07;45.63;;;16.17;;
17983;SDS011;9117;52.420;20.728;2023-02-08T00:28:36;46.43;;;17.03;;
17983;SDS011;9117;52.420;20.728;2023-02-08T00:31:06;33.57;;;13.00;;
17983;SDS011;9117;52.420;20.728;2023-02-08T00:33:34;28.33;;;11.23;;
17983;SDS011;9117;52.420;20.728;2023-02-08T00:36:03;27.90;;;11.17;;
17983;SDS011;9117;52.420;20.728;2023-02-08T00:38:34;27.90;;;10.97;;
17983;SDS011;9117;52.420;20.728;2023-02-08T00:41:02;28.87;;;12.17;;
17983;SDS011;9117;52.420;20.728;2023-02-08T00:43:31;28.13;;;12.10;;
17983;SDS011;9117;52.420;20.728;2023-02-08T00:45:59;24.33;;;10.93;;
17983;SDS011;9117;52.420;20.728;2023-02-08T00:48:29;32.37;;;11.87;;
17983;SDS011;9117;52.420;20.728;2023-02-08T00:50:59;29.77;;;11.73;;
17983;SDS011;9117;52.420;20.728;2023-02-08T00:53:29;30.50;;;11.53;;
17983;SDS011;9117;52.420;20.728;2023-02-08T00:55:58;27.40;;;10.83;;
17983;SDS011;9117;52.420;20.728;2023-02-08T00:58:26;25.87;;;11.17;;
17983;SDS011;9117;52.420;20.728;2023-02-08T01:00:54;24.93;;;11.40;;
17983;SDS011;9117;52.420;20.728;2023-02-08T01:03:23;26.20;;;11.23;;
17983;SDS011;9117;52.420;20.728;2023-02-08T01:05:53;28.27;;;10.90;;
17983;SDS011;9117;52.420;20.728;2023-02-08T01:08:26;25.63;;;10.53;;
17983;SDS011;9117;52.420;20.728;2023-02-08T01:11:00;25.03;;;10.73;;
17983;SDS011;9117;52.420;20.728;2023-02-08T01:13:29;29.07;;;11.73;;
17983;SDS011;9117;52.420;20.728;2023-02-08T01:16:04;33.27;;;12.50;;
17983;SDS011;9117;52.420;20.728;2023-02-08T01:18:33;33.33;;;12.43;;
17983;SDS011;9117;52.420;20.728;2023-02-08T01:21:04;25.77;;;11.40;;
17983;SDS011;9117;52.420;20.728;2023-02-08T01:23:34;32.70;;;12.83;;
17983;SDS011;9117;52.420;20.728;2023-02-08T01:26:02;26.13;;;11.63;;
17983;SDS011;9117;52.420;20.728;2023-02-08T01:28:31;31.33;;;11.93;;
17983;SDS011;9117;52.420;20.728;2023-02-08T01:30:59;32.83;;;12.13;;
17983;SDS011;9117;52.420;20.728;2023-02-08T01:33:32;24.63;;;11.17;;
17983;SDS011;9117;52.420;20.728;2023-02-08T01:36:01;29.30;;;12.83;;
17983;SDS011;9117;52.420;20.728;2023-02-08T01:38:31;31.77;;;13.80;;
17983;SDS011;9117;52.420;20.728;2023-02-08T01:40:59;30.67;;;12.27;;
17983;SDS011;9117;52.420;20.728;2023-02-08T01:43:29;26.87;;;12.50;;
17983;SDS011;9117;52.420;20.728;2023-02-08T01:45:58;31.70;;;13.03;;
17983;SDS011;9117;52.420;20.728;2023-02-08T01:48:27;35.70;;;13.93;;
17983;SDS011;9117;52.420;20.728;2023-02-08T01:50:58;39.90;;;15.50;;
17983;SDS011;9117;52.420;20.728;2023-02-08T01:53:29;43.10;;;15.43;;
17983;SDS011;9117;52.420;20.728;2023-02-08T01:56:01;38.27;;;14.50;;
17983;SDS011;9117;52.420;20.728;2023-02-08T01:58:33;38.30;;;14.50;;
17983;SDS011;9117;52.420;20.728;2023-02-08T02:01:04;32.83;;;14.47;;
17983;SDS011;9117;52.420;20.728;2023-02-08T02:03:33;30.47;;;14.33;;
17983;SDS011;9117;52.420;20.728;2023-02-08T02:06:04;36.93;;;14.40;;
17983;SDS011;9117;52.420;20.728;2023-02-08T02:08:36;35.37;;;15.23;;
17983;SDS011;9117;52.420;20.728;2023-02-08T02:11:08;25.43;;;12.07;;
17983;SDS011;9117;52.420;20.728;2023-02-08T02:13:37;28.67;;;12.53;;
17983;SDS011;9117;52.420;20.728;2023-02-08T02:16:05;27.43;;;11.43;;
17983;SDS011;9117;52.420;20.728;2023-02-08T02:18:34;25.83;;;10.63;;
17983;SDS011;9117;52.420;20.728;2023-02-08T02:21:11;24.60;;;10.87;;
17983;SDS011;9117;52.420;20.728;2023-02-08T02:26:57;27.93;;;11.40;;
17983;SDS011;9117;52.420;20.728;2023-02-08T02:29:52;26.30;;;11.57;;
17983;SDS011;9117;52.420;20.728;2023-02-08T02:32:41;26.07;;;12.40;;
17983;SDS011;9117;52.420;20.728;2023-02-08T02:35:23;25.73;;;11.43;;
17983;SDS011;9117;52.420;20.728;2023-02-08T02:37:58;32.07;;;11.30;;
17983;SDS011;9117;52.420;20.728;2023-02-08T02:40:35;22.97;;;11.30;;
17983;SDS011;9117;52.420;20.728;2023-02-08T02:43:11;28.23;;;11.40;;
17983;SDS011;9117;52.420;20.728;2023-02-08T02:46:02;28.60;;;11.87;;
17983;SDS011;9117;52.420;20.728;2023-02-08T02:48:37;24.77;;;10.93;;
17983;SDS011;9117;52.420;20.728;2023-02-08T02:51:11;26.23;;;9.93;;
17983;SDS011;9117;52.420;20.728;2023-02-08T02:53:44;26.07;;;11.30;;
17983;SDS011;9117;52.420;20.728;2023-02-08T02:56:17;22.93;;;10.67;;
17983;SDS011;9117;52.420;20.728;2023-02-08T02:58:47;33.97;;;13.20;;
17983;SDS011;9117;52.420;20.728;2023-02-08T03:01:20;27.67;;;11.03;;
17983;SDS011;9117;52.420;20.728;2023-02-08T03:03:52;28.80;;;12.27;;
17983;SDS011;9117;52.420;20.728;2023-02-08T03:06:23;28.43;;;12.00;;
17983;SDS011;9117;52.420;20.728;2023-02-08T03:09:07;29.97;;;12.40;;
17983;SDS011;9117;52.420;20.728;2023-02-08T03:11:46;26.10;;;11.97;;
17983;SDS011;9117;52.420;20.728;2023-02-08T03:14:27;28.33;;;11.63;;
17983;SDS011;9117;52.420;20.728;2023-02-08T03:17:02;25.67;;;11.60;;
17983;SDS011;9117;52.420;20.728;2023-02-08T03:19:44;29.93;;;11.70;;
17983;SDS011;9117;52.420;20.728;2023-02-08T03:22:20;32.57;;;11.23;;
17983;SDS011;9117;52.420;20.728;2023-02-08T03:24:54;30.73;;;11.00;;
17983;SDS011;9117;52.420;20.728;2023-02-08T03:27:26;32.23;;;12.03;;
17983;SDS011;9117;52.420;20.728;2023-02-08T03:30:00;29.50;;;12.53;;
17983;SDS011;9117;52.420;20.728;2023-02-08T03:32:35;22.13;;;11.03;;
17983;SDS011;9117;52.420;20.728;2023-02-08T03:35:09;26.40;;;12.37;;
17983;SDS011;9117;52.420;20.728;2023-02-08T03:37:43;27.07;;;11.20;;
17983;SDS011;9117;52.420;20.728;2023-02-08T03:40:15;21.57;;;10.30;;
17983;SDS011;9117;52.420;20.728;2023-02-08T03:42:47;29.77;;;10.77;;
17983;SDS011;9117;52.420;20.728;2023-02-08T03:45:19;30.43;;;10.90;;
17983;SDS011;9117;52.420;20.728;2023-02-08T03:47:49;30.13;;;11.63;;
17983;SDS011;9117;52.420;20.728;2023-02-08T03:50:22;24.40;;;11.00;;
17983;SDS011;9117;52.420;20.728;2023-02-08T03:52:51;27.23;;;11.57;;
17983;SDS011;9117;52.420;20.728;2023-02-08T03:55:20;28.80;;;11.80;;
17983;SDS011;9117;52.420;20.728;2023-02-08T03:57:53;27.10;;;11.37;;
17983;SDS011;9117;52.420;20.728;2023-02-08T04:00:25;25.73;;;11.47;;
17983;SDS011;9117;52.420;20.728;2023-02-08T04:02:56;23.90;;;11.27;;
17983;SDS011;9117;52.420;20.728;2023-02-08T04:05:30;23.27;;;11.77;;
17983;SDS011;9117;52.420;20.728;2023-02-08T04:07:58;28.33;;;12.17;;
17983;SDS011;9117;52.420;20.728;2023-02-08T04:10:27;26.00;;;11.43;;
17983;SDS011;9117;52.420;20.728;2023-02-08T04:12:55;23.97;;;11.17;;
17983;SDS011;9117;52.420;20.728;2023-02-08T04:15:23;24.93;;;11.57;;
17983;SDS011;9117;52.420;20.728;2023-02-08T04:17:52;26.87;;;11.77;;
17983;SDS011;9117;52.420;20.728;2023-02-08T04:20:21;28.30;;;11.73;;
17983;SDS011;9117;52.420;20.728;2023-02-08T04:22:51;22.90;;;11.13;;
17983;SDS011;9117;52.420;20.728;2023-02-08T04:25:19;21.03;;;11.27;;
17983;SDS011;9117;52.420;20.728;2023-02-08T04:27:47;23.63;;;11.60;;
17983;SDS011;9117;52.420;20.728;2023-02-08T04:30:16;24.87;;;10.60;;
17983;SDS011;9117;52.420;20.728;2023-02-08T04:32:44;26.37;;;11.50;;
17983;SDS011;9117;52.420;20.728;2023-02-08T04:35:12;24.33;;;11.53;;
17983;SDS011;9117;52.420;20.728;2023-02-08T04:37:41;30.17;;;12.20;;
17983;SDS011;9117;52.420;20.728;2023-02-08T04:40:12;26.13;;;10.87;;
17983;SDS011;9117;52.420;20.728;2023-02-08T04:42:40;29.90;;;11.73;;
17983;SDS011;9117;52.420;20.728;2023-02-08T04:45:11;22.93;;;11.27;;
17983;SDS011;9117;52.420;20.728;2023-02-08T04:47:39;26.47;;;11.27;;
17983;SDS011;9117;52.420;20.728;2023-02-08T04:50:09;27.03;;;11.10;;
17983;SDS011;9117;52.420;20.728;2023-02-08T04:52:38;23.13;;;11.67;;
17983;SDS011;9117;52.420;20.728;2023-02-08T04:55:07;30.30;;;11.93;;
17983;SDS011;9117;52.420;20.728;2023-02-08T04:57:36;27.03;;;11.87;;
17983;SDS011;9117;52.420;20.728;2023-02-08T05:00:05;29.40;;;11.60;;
17983;SDS011;9117;52.420;20.728;2023-02-08T05:02:34;26.13;;;11.60;;
17983;SDS011;9117;52.420;20.728;2023-02-08T05:05:02;31.33;;;12.97;;
17983;SDS011;9117;52.420;20.728;2023-02-08T05:07:31;34.63;;;14.47;;
17983;SDS011;9117;52.420;20.728;2023-02-08T05:09:59;35.07;;;13.33;;
17983;SDS011;9117;52.420;20.728;2023-02-08T05:12:28;32.47;;;14.07;;
17983;SDS011;9117;52.420;20.728;2023-02-08T05:14:57;32.47;;;13.93;;
17983;SDS011;9117;52.420;20.728;2023-02-08T05:17:26;29.90;;;13.50;;
17983;SDS011;9117;52.420;20.728;2023-02-08T05:19:54;31.17;;;13.80;;
17983;SDS011;9117;52.420;20.728;2023-02-08T05:22:22;36.97;;;14.10;;
17983;SDS011;9117;52.420;20.728;2023-02-08T05:24:51;36.73;;;14.27;;
17983;SDS011;9117;52.420;20.728;2023-02-08T05:27:25;35.37;;;14.67;;
17983;SDS011;9117;52.420;20.728;2023-02-08T05:29:58;33.17;;;14.97;;
17983;SDS011;9117;52.420;20.728;2023-02-08T05:32:26;34.33;;;13.80;;
17983;SDS011;9117;52.420;20.728;2023-02-08T05:34:55;31.63;;;14.87;;
17983;SDS011;9117;52.420;20.728;2023-02-08T05:37:23;37.60;;;14.27;;
17983;SDS011;9117;52.420;20.728;2023-02-08T05:39:51;32.03;;;14.00;;
17983;SDS011;9117;52.420;20.728;2023-02-08T05:42:20;33.93;;;14.80;;
17983;SDS011;9117;52.420;20.728;2023-02-08T05:44:48;30.17;;;14.47;;
17983;SDS011;9117;52.420;20.728;2023-02-08T05:47:19;32.43;;;13.23;;
17983;SDS011;9117;52.420;20.728;2023-02-08T05:49:47;29.50;;;14.33;;
17983;SDS011;9117;52.420;20.728;2023-02-08T05:52:15;35.13;;;14.23;;
17983;SDS011;9117;52.420;20.728;2023-02-08T05:54:43;33.67;;;14.80;;
17983;SDS011;9117;52.420;20.728;2023-02-08T05:57:12;35.30;;;14.07;;
17983;SDS011;9117;52.420;20.728;2023-02-08T05:59:40;31.63;;;14.27;;
17983;SDS011;9117;52.420;20.728;2023-02-08T06:02:08;33.10;;;14.90;;
17983;SDS011;9117;52.420;20.728;2023-02-08T06:04:38;34.40;;;15.60;;
17983;SDS011;9117;52.420;20.728;2023-02-08T06:07:06;31.70;;;15.33;;
17983;SDS011;9117;52.420;20.728;2023-02-08T06:09:34;36.53;;;14.70;;
17983;SDS011;9117;52.420;20.728;2023-02-08T06:12:02;32.60;;;14.40;;
17983;SDS011;9117;52.420;20.728;2023-02-08T06:14:31;34.00;;;14.20;;
17983;SDS011;9117;52.420;20.728;2023-02-08T06:17:02;30.87;;;14.03;;
17983;SDS011;9117;52.420;20.728;2023-02-08T06:19:33;33.57;;;14.47;;
17983;SDS011;9117;52.420;20.728;2023-02-08T06:22:02;31.57;;;13.60;;
17983;SDS011;9117;52.420;20.728;2023-02-08T06:24:31;33.60;;;14.97;;
17983;SDS011;9117;52.420;20.728;2023-02-08T06:26:59;35.60;;;15.77;;
17983;SDS011;9117;52.420;20.728;2023-02-08T06:29:27;35.07;;;15.20;;
17983;SDS011;9117;52.420;20.728;2023-02-08T06:31:55;36.13;;;15.03;;
17983;SDS011;9117;52.420;20.728;2023-02-08T06:34:24;42.10;;;16.57;;
17983;SDS011;9117;52.420;20.728;2023-02-08T06:36:52;45.60;;;19.37;;
17983;SDS011;9117;52.420;20.728;2023-02-08T06:39:21;47.13;;;17.77;;
17983;SDS011;9117;52.420;20.728;2023-02-08T06:41:50;46.37;;;18.17;;
17983;SDS011;9117;52.420;20.728;2023-02-08T06:44:18;41.43;;;17.67;;
17983;SDS011;9117;52.420;20.728;2023-02-08T06:46:46;45.57;;;17.17;;
17983;SDS011;9117;52.420;20.728;2023-02-08T06:49:15;43.03;;;18.37;;
17983;SDS011;9117;52.420;20.728;2023-02-08T06:51:43;40.17;;;17.53;;
17983;SDS011;9117;52.420;20.728;2023-02-08T06:54:11;45.70;;;16.47;;
17983;SDS011;9117;52.420;20.728;2023-02-08T06:56:42;42.67;;;16.93;;
17983;SDS011;9117;52.420;20.728;2023-02-08T06:59:10;39.87;;;16.87;;
17983;SDS011;9117;52.420;20.728;2023-02-08T07:01:38;40.20;;;16.67;;
17983;SDS011;9117;52.420;20.728;2023-02-08T07:04:06;37.87;;;16.70;;
17983;SDS011;9117;52.420;20.728;2023-02-08T07:06:35;40.80;;;17.43;;
17983;SDS011;9117;52.420;20.728;2023-02-08T07:09:03;39.57;;;18.63;;
17983;SDS011;9117;52.420;20.728;2023-02-08T07:11:31;55.67;;;23.57;;
17983;SDS011;9117;52.420;20.728;2023-02-08T07:14:00;54.10;;;21.70;;
17983;SDS011;9117;52.420;20.728;2023-02-08T07:16:29;46.17;;;18.70;;
17983;SDS011;9117;52.420;20.728;2023-02-08T07:18:57;40.73;;;18.00;;
17983;SDS011;9117;52.420;20.728;2023-02-08T07:21:25;39.13;;;17.97;;
17983;SDS011;9117;52.420;20.728;2023-02-08T07:23:53;42.87;;;18.43;;
17983;SDS011;9117;52.420;20.728;2023-02-08T07:26:22;39.27;;;16.80;;
17983;SDS011;9117;52.420;20.728;2023-02-08T07:28:50;43.83;;;17.07;;
17983;SDS011;9117;52.420;20.728;2023-02-08T07:31:19;33.97;;;15.90;;
17983;SDS011;9117;52.420;20.728;2023-02-08T07:33:48;44.90;;;17.07;;
17983;SDS011;9117;52.420;20.728;2023-02-08T07:36:16;42.23;;;18.57;;
17983;SDS011;9117;52.420;20.728;2023-02-08T07:38:46;46.10;;;18.07;;
17983;SDS011;9117;52.420;20.728;2023-02-08T07:41:15;44.23;;;17.77;;
17983;SDS011;9117;52.420;20.728;2023-02-08T07:43:43;56.27;;;21.03;;
17983;SDS011;9117;52.420;20.728;2023-02-08T07:46:12;50.00;;;22.63;;
17983;SDS011;9117;52.420;20.728;2023-02-08T07:48:42;54.23;;;23.00;;
17983;SDS011;9117;52.420;20.728;2023-02-08T07:51:11;52.93;;;21.53;;
17983;SDS011;9117;52.420;20.728;2023-02-08T07:53:39;48.80;;;19.90;;
17983;SDS011;9117;52.420;20.728;2023-02-08T07:56:07;42.60;;;18.83;;
17983;SDS011;9117;52.420;20.728;2023-02-08T07:58:36;38.10;;;18.87;;
17983;SDS011;9117;52.420;20.728;2023-02-08T08:01:04;36.67;;;16.27;;
17983;SDS011;9117;52.420;20.728;2023-02-08T08:03:48;43.43;;;17.57;;
17983;SDS011;9117;52.420;20.728;2023-02-08T08:06:18;41.80;;;18.27;;
17983;SDS011;9117;52.420;20.728;2023-02-08T08:08:47;50.63;;;20.97;;
17983;SDS011;9117;52.420;20.728;2023-02-08T08:11:16;49.40;;;20.80;;
17983;SDS011;9117;52.420;20.728;2023-02-08T08:13:46;49.40;;;21.43;;
17983;SDS011;9117;52.420;20.728;2023-02-08T08:16:14;50.00;;;21.53;;
17983;SDS011;9117;52.420;20.728;2023-02-08T08:18:43;49.47;;;23.20;;
17983;SDS011;9117;52.420;20.728;2023-02-08T08:21:13;52.10;;;24.73;;
17983;SDS011;9117;52.420;20.728;2023-02-08T08:23:42;59.57;;;25.57;;
17983;SDS011;9117;52.420;20.728;2023-02-08T08:26:11;62.10;;;26.93;;
17983;SDS011;9117;52.420;20.728;2023-02-08T08:28:40;65.03;;;28.23;;
17983;SDS011;9117;52.420;20.728;2023-02-08T08:31:09;64.43;;;27.73;;
17983;SDS011;9117;52.420;20.728;2023-02-08T08:33:38;63.37;;;25.73;;
17983;SDS011;9117;52.420;20.728;2023-02-08T08:36:07;59.63;;;25.80;;
17983;SDS011;9117;52.420;20.728;2023-02-08T08:38:37;54.53;;;23.67;;
17983;SDS011;9117;52.420;20.728;2023-02-08T08:41:09;51.73;;;21.73;;
17983;SDS011;9117;52.420;20.728;2023-02-08T08:43:40;46.47;;;20.83;;
17983;SDS011;9117;52.420;20.728;2023-02-08T08:46:08;46.13;;;20.17;;
17983;SDS011;9117;52.420;20.728;2023-02-08T08:48:37;46.93;;;20.27;;
17983;SDS011;9117;52.420;20.728;2023-02-08T08:51:05;41.53;;;20.20;;
17983;SDS011;9117;52.420;20.728;2023-02-08T08:53:34;45.37;;;20.97;;
17983;SDS011;9117;52.420;20.728;2023-02-08T08:56:07;51.73;;;21.33;;
17983;SDS011;9117;52.420;20.728;2023-02-08T08:58:36;45.67;;;20.73;;
17983;SDS011;9117;52.420;20.728;2023-02-08T09:01:04;45.73;;;20.63;;
17983;SDS011;9117;52.420;20.728;2023-02-08T09:03:32;52.00;;;21.03;;
17983;SDS011;9117;52.420;20.728;2023-02-08T09:06:00;46.77;;;20.10;;
17983;SDS011;9117;52.420;20.728;2023-02-08T09:08:29;50.07;;;21.03;;
17983;SDS011;9117;52.420;20.728;2023-02-08T09:11:02;48.97;;;20.67;;
17983;SDS011;9117;52.420;20.728;2023-02-08T09:13:33;49.00;;;20.80;;
17983;SDS011;9117;52.420;20.728;2023-02-08T09:16:05;46.00;;;20.47;;
17983;SDS011;9117;52.420;20.728;2023-02-08T09:18:34;54.30;;;22.67;;
17983;SDS011;9117;52.420;20.728;2023-02-08T09:21:05;51.77;;;22.60;;
17983;SDS011;9117;52.420;20.728;2023-02-08T09:23:34;54.57;;;23.03;;
17983;SDS011;9117;52.420;20.728;2023-02-08T09:26:03;49.07;;;21.97;;
17983;SDS011;9117;52.420;20.728;2023-02-08T09:28:34;55.27;;;23.03;;
17983;SDS011;9117;52.420;20.728;2023-02-08T09:31:06;53.90;;;22.73;;
17983;SDS011;9117;52.420;20.728;2023-02-08T09:33:34;55.87;;;24.77;;
17983;SDS011;9117;52.420;20.728;2023-02-08T09:36:03;50.10;;;21.80;;
17983;SDS011;9117;52.420;20.728;2023-02-08T09:38:32;55.60;;;23.53;;
17983;SDS011;9117;52.420;20.728;2023-02-08T09:41:04;54.93;;;23.27;;
17983;SDS011;9117;52.420;20.728;2023-02-08T09:43:51;56.63;;;23.23;;
17983;SDS011;9117;52.420;20.728;2023-02-08T09:46:26;49.63;;;22.50;;
17983;SDS011;9117;52.420;20.728;2023-02-08T09:48:57;47.00;;;21.00;;
17983;SDS011;9117;52.420;20.728;2023-02-08T09:51:31;54.53;;;22.87;;
17983;SDS011;9117;52.420;20.728;2023-02-08T09:54:05;58.10;;;22.97;;
17983;SDS011;9117;52.420;20.728;2023-02-08T09:56:36;53.67;;;23.23;;
17983;SDS011;9117;52.420;20.728;2023-02-08T09:59:11;55.97;;;23.40;;
17983;SDS011;9117;52.420;20.728;2023-02-08T10:01:42;53.73;;;22.83;;
17983;SDS011;9117;52.420;20.728;2023-02-08T10:04:14;49.93;;;22.33;;
17983;SDS011;9117;52.420;20.728;2023-02-08T10:06:50;53.40;;;23.07;;
17983;SDS011;9117;52.420;20.728;2023-02-08T10:09:20;58.30;;;23.63;;
17983;SDS011;9117;52.420;20.728;2023-02-08T10:11:53;56.67;;;24.03;;
17983;SDS011;9117;52.420;20.728;2023-02-08T10:14:33;57.20;;;23.97;;
17983;SDS011;9117;52.420;20.728;2023-02-08T10:17:18;54.27;;;23.37;;
17983;SDS011;9117;52.420;20.728;2023-02-08T10:20:01;60.30;;;24.27;;
17983;SDS011;9117;52.420;20.728;2023-02-08T10:22:37;57.73;;;23.57;;
17983;SDS011;9117;52.420;20.728;2023-02-08T10:25:29;55.03;;;23.30;;
17983;SDS011;9117;52.420;20.728;2023-02-08T10:28:15;56.70;;;23.57;;
17983;SDS011;9117;52.420;20.728;2023-02-08T10:30:54;62.63;;;25.30;;
17983;SDS011;9117;52.420;20.728;2023-02-08T10:33:30;64.03;;;24.53;;
17983;SDS011;9117;52.420;20.728;2023-02-08T10:36:06;60.00;;;24.47;;
17983;SDS011;9117;52.420;20.728;2023-02-08T10:38:41;63.97;;;23.67;;
17983;SDS011;9117;52.420;20.728;2023-02-08T10:41:14;59.53;;;24.97;;
17983;SDS011;9117;52.420;20.728;2023-02-08T10:43:45;61.40;;;24.67;;
17983;SDS011;9117;52.420;20.728;2023-02-08T10:46:21;60.53;;;24.00;;
17983;SDS011;9117;52.420;20.728;2023-02-08T10:48:58;54.53;;;23.30;;
17983;SDS011;9117;52.420;20.728;2023-02-08T10:51:35;61.23;;;24.27;;
17983;SDS011;9117;52.420;20.728;2023-02-08T10:54:03;54.53;;;23.53;;
17983;SDS011;9117;52.420;20.728;2023-02-08T10:56:36;55.90;;;22.40;;
17983;SDS011;9117;52.420;20.728;2023-02-08T10:59:14;51.33;;;21.27;;
17983;SDS011;9117;52.420;20.728;2023-02-08T11:01:48;59.57;;;21.80;;
17983;SDS011;9117;52.420;20.728;2023-02-08T11:04:17;47.43;;;19.70;;
17983;SDS011;9117;52.420;20.728;2023-02-08T11:06:46;46.10;;;18.27;;
17983;SDS011;9117;52.420;20.728;2023-02-08T11:09:20;51.47;;;19.97;;
17983;SDS011;9117;52.420;20.728;2023-02-08T11:11:50;49.03;;;19.23;;
17983;SDS011;9117;52.420;20.728;2023-02-08T11:14:21;44.83;;;18.13;;
17983;SDS011;9117;52.420;20.728;2023-02-08T11:17:17;49.50;;;19.37;;
17983;SDS011;9117;52.420;20.728;2023-02-08T11:19:52;45.00;;;19.57;;
17983;SDS011;9117;52.420;20.728;2023-02-08T11:22:21;54.07;;;20.40;;
17983;SDS011;9117;52.420;20.728;2023-02-08T11:24:54;55.73;;;20.83;;
17983;SDS011;9117;52.420;20.728;2023-02-08T11:27:29;54.93;;;21.23;;
17983;SDS011;9117;52.420;20.728;2023-02-08T11:35:51;54.80;;;20.53;;
17983;SDS011;9117;52.420;20.728;2023-02-08T11:38:22;47.80;;;19.97;;
17983;SDS011;9117;52.420;20.728;2023-02-08T11:40:54;44.63;;;18.30;;
17983;SDS011;9117;52.420;20.728;2023-02-08T11:43:24;42.37;;;18.27;;
17983;SDS011;9117;52.420;20.728;2023-02-08T11:45:54;44.17;;;18.67;;
17983;SDS011;9117;52.420;20.728;2023-02-08T11:48:28;46.00;;;19.13;;
17983;SDS011;9117;52.420;20.728;2023-02-08T11:51:05;38.10;;;16.20;;
17983;SDS011;9117;52.420;20.728;2023-02-08T11:53:35;46.93;;;18.57;;
17983;SDS011;9117;52.420;20.728;2023-02-08T11:56:13;51.43;;;19.13;;
17983;SDS011;9117;52.420;20.728;2023-02-08T11:58:54;42.90;;;17.53;;
17983;SDS011;9117;52.420;20.728;2023-02-08T12:01:25;40.37;;;17.70;;
17983;SDS011;9117;52.420;20.728;2023-02-08T12:03:57;41.70;;;17.47;;
17983;SDS011;9117;52.420;20.728;2023-02-08T12:12:43;43.40;;;17.67;;
17983;SDS011;9117;52.420;20.728;2023-02-08T12:15:36;42.33;;;17.57;;
17983;SDS011;9117;52.420;20.728;2023-02-08T12:21:21;21.13;;;9.00;;
17983;SDS011;9117;52.420;20.728;2023-02-08T12:23:54;26.50;;;9.67;;
17983;SDS011;9117;52.420;20.728;2023-02-08T12:26:31;23.80;;;8.77;;
17983;SDS011;9117;52.420;20.728;2023-02-08T12:29:21;33.27;;;13.10;;
17983;SDS011;9117;52.420;20.728;2023-02-08T12:32:27;36.73;;;14.60;;
17983;SDS011;9117;52.420;20.728;2023-02-08T12:35:28;34.37;;;13.97;;
17983;SDS011;9117;52.420;20.728;2023-02-08T12:38:40;27.30;;;12.30;;
17983;SDS011;9117;52.420;20.728;2023-02-08T12:41:50;27.53;;;12.27;;
17983;SDS011;9117;52.420;20.728;2023-02-08T12:44:34;29.57;;;12.57;;
17983;SDS011;9117;52.420;20.728;2023-02-08T12:47:16;29.17;;;12.90;;
17983;SDS011;9117;52.420;20.728;2023-02-08T12:50:02;29.40;;;12.17;;
17983;SDS011;9117;52.420;20.728;2023-02-08T12:52:41;34.53;;;12.80;;
17983;SDS011;9117;52.420;20.728;2023-02-08T12:55:14;31.03;;;13.40;;
17983;SDS011;9117;52.420;20.728;2023-02-08T12:57:47;32.97;;;13.57;;
17983;SDS011;9117;52.420;20.728;2023-02-08T13:00:20;29.63;;;13.10;;
17983;SDS011;9117;52.420;20.728;2023-02-08T13:02:55;29.33;;;13.67;;
17983;SDS011;9117;52.420;20.728;2023-02-08T13:05:30;28.57;;;13.00;;
17983;SDS011;9117;52.420;20.728;2023-02-08T13:08:20;27.17;;;12.23;;
17983;SDS011;9117;52.420;20.728;2023-02-08T13:10:59;28.53;;;12.13;;
17983;SDS011;9117;52.420;20.728;2023-02-08T13:13:46;27.03;;;11.53;;
17983;SDS011;9117;52.420;20.728;2023-02-08T13:16:24;27.67;;;10.00;;
17983;SDS011;9117;52.420;20.728;2023-02-08T13:19:04;18.70;;;7.97;;
17983;SDS011;9117;52.420;20.728;2023-02-08T13:21:44;19.70;;;6.97;;
17983;SDS011;9117;52.420;20.728;2023-02-08T13:24:14;8.57;;;3.77;;
17983;SDS011;9117;52.420;20.728;2023-02-08T13:26:53;9.87;;;3.80;;
17983;SDS011;9117;52.420;20.728;2023-02-08T13:29:21;7.57;;;3.50;;
17983;SDS011;9117;52.420;20.728;2023-02-08T13:31:55;7.77;;;3.60;;
17983;SDS011;9117;52.420;20.728;2023-02-08T13:34:28;6.53;;;3.27;;
17983;SDS011;9117;52.420;20.728;2023-02-08T13:37:00;11.70;;;3.63;;
17983;SDS011;9117;52.420;20.728;2023-02-08T13:39:45;8.87;;;3.77;;
17983;SDS011;9117;52.420;20.728;2023-02-08T13:42:20;7.50;;;3.33;;
17983;SDS011;9117;52.420;20.728;2023-02-08T13:44:54;8.80;;;4.00;;
17983;SDS011;9117;52.420;20.728;2023-02-08T13:47:25;7.07;;;3.37;;
17983;SDS011;9117;52.420;20.728;2023-02-08T13:49:57;6.77;;;3.73;;
17983;SDS011;9117;52.420;20.728;2023-02-08T13:52:49;6.43;;;3.17;;
17983;SDS011;9117;52.420;20.728;2023-02-08T14:01:14;6.23;;;2.70;;
17983;SDS011;9117;52.420;20.728;2023-02-08T14:03:53;6.57;;;2.80;;
17983;SDS011;9117;52.420;20.728;2023-02-08T14:06:47;7.73;;;2.83;;
17983;SDS011;9117;52.420;20.728;2023-02-08T14:09:20;4.20;;;2.40;;
17983;SDS011;9117;52.420;20.728;2023-02-08T14:11:52;5.03;;;2.60;;
17983;SDS011;9117;52.420;20.728;2023-02-08T14:14:25;4.30;;;2.67;;
17983;SDS011;9117;52.420;20.728;2023-02-08T14:19:54;6.80;;;2.47;;
17983;SDS011;9117;52.420;20.728;2023-02-08T14:22:25;5.43;;;2.73;;
17983;SDS011;9117;52.420;20.728;2023-02-08T14:24:59;9.37;;;2.80;;
17983;SDS011;9117;52.420;20.728;2023-02-08T14:27:31;7.07;;;3.13;;
17983;SDS011;9117;52.420;20.728;2023-02-08T14:30:06;10.33;;;3.70;;
17983;SDS011;9117;52.420;20.728;2023-02-08T14:32:46;5.10;;;2.80;;
17983;SDS011;9117;52.420;20.728;2023-02-08T14:35:17;10.10;;;3.30;;
17983;SDS011;9117;52.420;20.728;2023-02-08T14:37:49;7.57;;;3.30;;
17983;SDS011;9117;52.420;20.728;2023-02-08T14:40:47;8.47;;;3.10;;
17983;SDS011;9117;52.420;20.728;2023-02-08T14:43:30;8.10;;;3.60;;
17983;SDS011;9117;52.420;20.728;2023-02-08T14:49:10;7.03;;;3.20;;
17983;SDS011;9117;52.420;20.728;2023-02-08T14:51:40;6.60;;;3.23;;
17983;SDS011;9117;52.420;20.728;2023-02-08T14:54:16;6.97;;;3.57;;
17983;SDS011;9117;52.420;20.728;2023-02-08T14:56:52;7.73;;;3.27;;
17983;SDS011;9117;52.420;20.728;2023-02-08T14:59:24;8.47;;;4.07;;
17983;SDS011;9117;52.420;20.728;2023-02-08T15:01:55;9.00;;;3.73;;
17983;SDS011;9117;52.420;20.728;2023-02-08T15:04:26;10.93;;;4.63;;
17983;SDS011;9117;52.420;20.728;2023-02-08T15:07:03;10.70;;;4.30;;
17983;SDS011;9117;52.420;20.728;2023-02-08T15:09:46;10.03;;;4.33;;
17983;SDS011;9117;52.420;20.728;2023-02-08T15:12:15;7.30;;;4.40;;
17983;SDS011;9117;52.420;20.728;2023-02-08T15:14:48;11.03;;;4.60;;
17983;SDS011;9117;52.420;20.728;2023-02-08T15:17:20;11.00;;;4.40;;
17983;SDS011;9117;52.420;20.728;2023-02-08T15:19:55;9.90;;;4.73;;
17983;SDS011;9117;52.420;20.728;2023-02-08T15:22:30;10.87;;;4.97;;
17983;SDS011;9117;52.420;20.728;2023-02-08T15:25:01;10.10;;;4.50;;